sensor_id;sensor_type;location;lat;lon;timestamp;temperature;humidity
40758;DHT22;26462;47.384;19.218;2023-09-07T00:00:51;17.80;96.90
40758;DHT22;26462;47.384;19.218;2023-09-07T00:03:18;17.80;96.80
40758;DHT22;26462;47.384;19.218;2023-09-07T00:05:45;17.80;97.10
40758;DHT22;26462;47.384;19.218;2023-09-07T00:08:12;17.80;97.60
40758;DHT22;26462;47.384;19.218;2023-09-07T00:10:39;17.80;97.30
40758;DHT22;26462;47.384;19.218;2023-09-07T00:13:06;17.80;97.60
40758;DHT22;26462;47.384;19.218;2023-09-07T00:15:38;17.80;97.20
40758;DHT22;26462;47.384;19.218;2023-09-07T00:18:05;17.80;97.00
40758;DHT22;26462;47.384;19.218;2023-09-07T00:20:33;17.70;97.20
40758;DHT22;26462;47.384;19.218;2023-09-07T00:23:01;17.70;97.40
40758;DHT22;26462;47.384;19.218;2023-09-07T00:25:28;17.60;97.40
40758;DHT22;26462;47.384;19.218;2023-09-07T00:27:55;17.70;97.30
40758;DHT22;26462;47.384;19.218;2023-09-07T00:30:23;17.60;97.40
40758;DHT22;26462;47.384;19.218;2023-09-07T00:32:50;17.60;97.40
40758;DHT22;26462;47.384;19.218;2023-09-07T00:35:17;17.60;97.60
40758;DHT22;26462;47.384;19.218;2023-09-07T00:37:44;17.60;97.70
40758;DHT22;26462;47.384;19.218;2023-09-07T00:40:11;17.60;97.60
40758;DHT22;26462;47.384;19.218;2023-09-07T00:42:39;17.60;97.50
40758;DHT22;26462;47.384;19.218;2023-09-07T00:45:06;17.60;97.60
40758;DHT22;26462;47.384;19.218;2023-09-07T00:47:34;17.60;97.80
40758;DHT22;26462;47.384;19.218;2023-09-07T00:50:05;17.60;97.70
40758;DHT22;26462;47.384;19.218;2023-09-07T00:52:34;17.60;97.90
40758;DHT22;26462;47.384;19.218;2023-09-07T00:55:02;17.60;97.70
40758;DHT22;26462;47.384;19.218;2023-09-07T00:57:31;17.60;97.70
40758;DHT22;26462;47.384;19.218;2023-09-07T00:59:59;17.50;97.70
40758;DHT22;26462;47.384;19.218;2023-09-07T01:02:27;17.50;97.60
40758;DHT22;26462;47.384;19.218;2023-09-07T01:04:57;17.50;97.80
40758;DHT22;26462;47.384;19.218;2023-09-07T01:07:30;17.40;97.90
40758;DHT22;26462;47.384;19.218;2023-09-07T01:10:00;17.40;98.10
40758;DHT22;26462;47.384;19.218;2023-09-07T01:12:30;17.40;98.20
40758;DHT22;26462;47.384;19.218;2023-09-07T01:14:57;17.40;98.20
40758;DHT22;26462;47.384;19.218;2023-09-07T01:17:25;17.30;98.00
40758;DHT22;26462;47.384;19.218;2023-09-07T01:19:53;17.40;98.30
40758;DHT22;26462;47.384;19.218;2023-09-07T01:22:21;17.40;98.30
40758;DHT22;26462;47.384;19.218;2023-09-07T01:24:52;17.40;98.20
40758;DHT22;26462;47.384;19.218;2023-09-07T01:27:19;17.40;98.30
40758;DHT22;26462;47.384;19.218;2023-09-07T01:29:47;17.40;98.30
40758;DHT22;26462;47.384;19.218;2023-09-07T01:32:14;17.40;98.40
40758;DHT22;26462;47.384;19.218;2023-09-07T01:34:41;17.30;98.60
40758;DHT22;26462;47.384;19.218;2023-09-07T01:37:08;17.30;98.70
40758;DHT22;26462;47.384;19.218;2023-09-07T01:39:36;17.30;98.50
40758;DHT22;26462;47.384;19.218;2023-09-07T01:42:04;17.20;98.50
40758;DHT22;26462;47.384;19.218;2023-09-07T01:44:31;17.20;99.10
40758;DHT22;26462;47.384;19.218;2023-09-07T01:46:58;17.20;99.20
40758;DHT22;26462;47.384;19.218;2023-09-07T01:49:26;17.10;99.20
40758;DHT22;26462;47.384;19.218;2023-09-07T01:51:53;17.10;99.50
40758;DHT22;26462;47.384;19.218;2023-09-07T01:54:24;17.10;99.60
40758;DHT22;26462;47.384;19.218;2023-09-07T01:56:52;17.10;99.90
40758;DHT22;26462;47.384;19.218;2023-09-07T01:59:19;17.10;99.90
40758;DHT22;26462;47.384;19.218;2023-09-07T02:01:46;17.00;99.90
40758;DHT22;26462;47.384;19.218;2023-09-07T02:04:13;17.00;99.90
40758;DHT22;26462;47.384;19.218;2023-09-07T02:06:41;17.00;99.90
40758;DHT22;26462;47.384;19.218;2023-09-07T02:09:08;16.90;99.90
40758;DHT22;26462;47.384;19.218;2023-09-07T02:11:36;16.90;99.90
40758;DHT22;26462;47.384;19.218;2023-09-07T02:14:03;16.90;99.90
40758;DHT22;26462;47.384;19.218;2023-09-07T02:16:31;16.90;99.90
40758;DHT22;26462;47.384;19.218;2023-09-07T02:19:02;16.90;99.80
40758;DHT22;26462;47.384;19.218;2023-09-07T02:21:33;16.90;99.90
40758;DHT22;26462;47.384;19.218;2023-09-07T02:24:01;16.90;99.90
40758;DHT22;26462;47.384;19.218;2023-09-07T02:26:28;16.80;99.90
40758;DHT22;26462;47.384;19.218;2023-09-07T02:28:55;16.80;99.90
40758;DHT22;26462;47.384;19.218;2023-09-07T02:31:23;16.80;99.90
40758;DHT22;26462;47.384;19.218;2023-09-07T02:33:50;16.80;99.90
40758;DHT22;26462;47.384;19.218;2023-09-07T02:36:17;16.70;99.90
40758;DHT22;26462;47.384;19.218;2023-09-07T02:38:44;16.70;99.90
40758;DHT22;26462;47.384;19.218;2023-09-07T02:41:12;16.70;99.90
40758;DHT22;26462;47.384;19.218;2023-09-07T02:43:39;16.70;99.90
40758;DHT22;26462;47.384;19.218;2023-09-07T02:46:06;16.70;99.90
40758;DHT22;26462;47.384;19.218;2023-09-07T02:48:35;16.70;99.90
40758;DHT22;26462;47.384;19.218;2023-09-07T02:51:02;16.70;99.90
40758;DHT22;26462;47.384;19.218;2023-09-07T02:53:29;16.60;99.90
40758;DHT22;26462;47.384;19.218;2023-09-07T02:55:57;16.60;99.90
40758;DHT22;26462;47.384;19.218;2023-09-07T02:58:25;16.60;99.90
40758;DHT22;26462;47.384;19.218;2023-09-07T03:00:53;16.60;99.90
40758;DHT22;26462;47.384;19.218;2023-09-07T03:03:22;16.50;99.90
40758;DHT22;26462;47.384;19.218;2023-09-07T03:05:50;16.50;99.90
40758;DHT22;26462;47.384;19.218;2023-09-07T03:08:17;16.50;99.90
40758;DHT22;26462;47.384;19.218;2023-09-07T03:10:44;16.50;99.90
40758;DHT22;26462;47.384;19.218;2023-09-07T03:13:11;16.40;99.90
40758;DHT22;26462;47.384;19.218;2023-09-07T03:15:39;16.40;99.90
40758;DHT22;26462;47.384;19.218;2023-09-07T03:18:10;16.40;99.90
40758;DHT22;26462;47.384;19.218;2023-09-07T03:20:39;16.30;99.90
40758;DHT22;26462;47.384;19.218;2023-09-07T03:23:06;16.30;99.90
40758;DHT22;26462;47.384;19.218;2023-09-07T03:25:35;16.30;99.90
40758;DHT22;26462;47.384;19.218;2023-09-07T03:28:02;16.30;99.90
40758;DHT22;26462;47.384;19.218;2023-09-07T03:30:33;16.30;99.90
40758;DHT22;26462;47.384;19.218;2023-09-07T03:33:00;16.20;99.90
40758;DHT22;26462;47.384;19.218;2023-09-07T03:35:29;16.10;99.90
40758;DHT22;26462;47.384;19.218;2023-09-07T03:37:56;16.10;99.90
40758;DHT22;26462;47.384;19.218;2023-09-07T03:40:23;16.20;99.90
40758;DHT22;26462;47.384;19.218;2023-09-07T03:42:50;16.20;99.90
40758;DHT22;26462;47.384;19.218;2023-09-07T03:45:17;16.20;99.90
40758;DHT22;26462;47.384;19.218;2023-09-07T03:47:44;16.20;99.90
40758;DHT22;26462;47.384;19.218;2023-09-07T03:50:14;16.20;99.90
40758;DHT22;26462;47.384;19.218;2023-09-07T03:52:41;16.10;99.90
40758;DHT22;26462;47.384;19.218;2023-09-07T03:55:08;16.10;99.90
40758;DHT22;26462;47.384;19.218;2023-09-07T03:57:37;16.10;99.90
40758;DHT22;26462;47.384;19.218;2023-09-07T04:00:04;16.10;99.90
40758;DHT22;26462;47.384;19.218;2023-09-07T04:02:43;16.10;99.90
40758;DHT22;26462;47.384;19.218;2023-09-07T04:05:10;16.10;99.90
40758;DHT22;26462;47.384;19.218;2023-09-07T04:07:38;16.10;99.90
40758;DHT22;26462;47.384;19.218;2023-09-07T04:10:05;16.10;99.90
40758;DHT22;26462;47.384;19.218;2023-09-07T04:12:33;16.10;99.90
40758;DHT22;26462;47.384;19.218;2023-09-07T04:15:02;16.10;99.90
40758;DHT22;26462;47.384;19.218;2023-09-07T04:17:29;16.10;99.90
40758;DHT22;26462;47.384;19.218;2023-09-07T04:19:57;16.20;99.90
40758;DHT22;26462;47.384;19.218;2023-09-07T04:22:24;16.10;99.90
40758;DHT22;26462;47.384;19.218;2023-09-07T04:24:51;16.10;99.90
40758;DHT22;26462;47.384;19.218;2023-09-07T04:27:18;16.10;99.90
40758;DHT22;26462;47.384;19.218;2023-09-07T04:29:45;16.20;99.90
40758;DHT22;26462;47.384;19.218;2023-09-07T04:32:12;16.20;99.90
40758;DHT22;26462;47.384;19.218;2023-09-07T04:34:39;16.20;99.90
40758;DHT22;26462;47.384;19.218;2023-09-07T04:37:06;16.20;99.90
40758;DHT22;26462;47.384;19.218;2023-09-07T04:39:35;16.20;99.90
40758;DHT22;26462;47.384;19.218;2023-09-07T04:42:02;16.20;99.90
40758;DHT22;26462;47.384;19.218;2023-09-07T04:44:29;16.30;99.90
40758;DHT22;26462;47.384;19.218;2023-09-07T04:46:57;16.30;99.90
40758;DHT22;26462;47.384;19.218;2023-09-07T04:49:24;16.30;99.90
40758;DHT22;26462;47.384;19.218;2023-09-07T04:51:55;16.30;99.90
40758;DHT22;26462;47.384;19.218;2023-09-07T04:54:22;16.30;99.90
40758;DHT22;26462;47.384;19.218;2023-09-07T04:56:49;16.20;99.90
40758;DHT22;26462;47.384;19.218;2023-09-07T04:59:16;16.30;99.90
40758;DHT22;26462;47.384;19.218;2023-09-07T05:01:44;16.30;99.90
40758;DHT22;26462;47.384;19.218;2023-09-07T05:04:11;16.40;99.90
40758;DHT22;26462;47.384;19.218;2023-09-07T05:06:39;16.40;99.90
40758;DHT22;26462;47.384;19.218;2023-09-07T05:09:08;16.40;99.90
40758;DHT22;26462;47.384;19.218;2023-09-07T05:11:35;16.40;99.90
40758;DHT22;26462;47.384;19.218;2023-09-07T05:14:03;16.40;99.90
40758;DHT22;26462;47.384;19.218;2023-09-07T05:16:30;16.50;99.90
40758;DHT22;26462;47.384;19.218;2023-09-07T05:18:57;16.50;99.90
40758;DHT22;26462;47.384;19.218;2023-09-07T05:21:25;16.50;99.90
40758;DHT22;26462;47.384;19.218;2023-09-07T05:23:52;16.60;99.90
40758;DHT22;26462;47.384;19.218;2023-09-07T05:26:23;16.70;99.90
40758;DHT22;26462;47.384;19.218;2023-09-07T05:28:52;16.70;99.90
40758;DHT22;26462;47.384;19.218;2023-09-07T05:31:19;16.80;99.90
40758;DHT22;26462;47.384;19.218;2023-09-07T05:33:47;16.80;99.90
40758;DHT22;26462;47.384;19.218;2023-09-07T05:36:14;16.80;99.90
40758;DHT22;26462;47.384;19.218;2023-09-07T05:38:41;16.90;99.90
40758;DHT22;26462;47.384;19.218;2023-09-07T05:41:09;16.90;99.90
40758;DHT22;26462;47.384;19.218;2023-09-07T05:43:36;17.00;99.90
40758;DHT22;26462;47.384;19.218;2023-09-07T05:46:03;17.00;99.90
40758;DHT22;26462;47.384;19.218;2023-09-07T05:48:31;17.10;99.90
40758;DHT22;26462;47.384;19.218;2023-09-07T05:50:58;17.10;99.90
40758;DHT22;26462;47.384;19.218;2023-09-07T05:53:26;17.20;99.90
40758;DHT22;26462;47.384;19.218;2023-09-07T05:55:53;17.30;99.90
40758;DHT22;26462;47.384;19.218;2023-09-07T05:58:20;17.30;99.90
40758;DHT22;26462;47.384;19.218;2023-09-07T06:00:47;17.40;99.90
40758;DHT22;26462;47.384;19.218;2023-09-07T06:03:15;17.50;99.90
40758;DHT22;26462;47.384;19.218;2023-09-07T06:05:42;17.70;99.90
40758;DHT22;26462;47.384;19.218;2023-09-07T06:08:11;17.80;99.90
40758;DHT22;26462;47.384;19.218;2023-09-07T06:10:38;17.90;99.50
40758;DHT22;26462;47.384;19.218;2023-09-07T06:13:07;18.10;98.90
40758;DHT22;26462;47.384;19.218;2023-09-07T06:15:34;18.30;99.20
40758;DHT22;26462;47.384;19.218;2023-09-07T06:18:02;18.40;98.80
40758;DHT22;26462;47.384;19.218;2023-09-07T06:20:31;18.50;98.00
40758;DHT22;26462;47.384;19.218;2023-09-07T06:22:59;18.70;97.20
40758;DHT22;26462;47.384;19.218;2023-09-07T06:25:27;18.80;97.20
40758;DHT22;26462;47.384;19.218;2023-09-07T06:27:56;18.90;96.60
40758;DHT22;26462;47.384;19.218;2023-09-07T06:30:23;19.10;96.50
40758;DHT22;26462;47.384;19.218;2023-09-07T06:32:51;19.20;96.20
40758;DHT22;26462;47.384;19.218;2023-09-07T06:35:19;19.30;96.30
40758;DHT22;26462;47.384;19.218;2023-09-07T06:37:47;19.40;95.60
40758;DHT22;26462;47.384;19.218;2023-09-07T06:40:17;19.50;95.60
40758;DHT22;26462;47.384;19.218;2023-09-07T06:42:48;19.60;95.60
40758;DHT22;26462;47.384;19.218;2023-09-07T06:45:18;19.80;95.20
40758;DHT22;26462;47.384;19.218;2023-09-07T06:47:48;19.90;95.80
40758;DHT22;26462;47.384;19.218;2023-09-07T06:50:16;20.10;95.30
40758;DHT22;26462;47.384;19.218;2023-09-07T06:52:43;20.20;94.30
40758;DHT22;26462;47.384;19.218;2023-09-07T06:55:11;20.30;93.60
40758;DHT22;26462;47.384;19.218;2023-09-07T06:57:38;20.50;93.10
40758;DHT22;26462;47.384;19.218;2023-09-07T07:00:06;20.50;92.60
40758;DHT22;26462;47.384;19.218;2023-09-07T07:02:34;20.60;92.20
40758;DHT22;26462;47.384;19.218;2023-09-07T07:05:02;20.70;91.60
40758;DHT22;26462;47.384;19.218;2023-09-07T07:07:30;20.80;91.00
40758;DHT22;26462;47.384;19.218;2023-09-07T07:09:58;20.90;91.70
40758;DHT22;26462;47.384;19.218;2023-09-07T07:12:25;21.00;90.90
40758;DHT22;26462;47.384;19.218;2023-09-07T07:14:53;21.10;90.90
40758;DHT22;26462;47.384;19.218;2023-09-07T07:17:22;21.30;91.30
40758;DHT22;26462;47.384;19.218;2023-09-07T07:19:49;21.40;90.90
40758;DHT22;26462;47.384;19.218;2023-09-07T07:22:16;21.50;90.50
40758;DHT22;26462;47.384;19.218;2023-09-07T07:24:48;21.60;90.00
40758;DHT22;26462;47.384;19.218;2023-09-07T07:27:16;21.50;88.40
40758;DHT22;26462;47.384;19.218;2023-09-07T07:29:43;21.60;89.00
40758;DHT22;26462;47.384;19.218;2023-09-07T07:32:12;21.70;88.50
40758;DHT22;26462;47.384;19.218;2023-09-07T07:34:39;21.80;89.20
40758;DHT22;26462;47.384;19.218;2023-09-07T07:37:06;21.90;88.10
40758;DHT22;26462;47.384;19.218;2023-09-07T07:39:33;22.00;88.10
40758;DHT22;26462;47.384;19.218;2023-09-07T07:42:01;22.10;88.30
40758;DHT22;26462;47.384;19.218;2023-09-07T07:44:30;22.20;86.60
40758;DHT22;26462;47.384;19.218;2023-09-07T07:46:57;22.20;86.50
40758;DHT22;26462;47.384;19.218;2023-09-07T07:49:24;22.30;86.00
40758;DHT22;26462;47.384;19.218;2023-09-07T07:51:52;22.30;84.50
40758;DHT22;26462;47.384;19.218;2023-09-07T07:54:22;22.30;83.90
40758;DHT22;26462;47.384;19.218;2023-09-07T07:56:52;22.40;83.70
40758;DHT22;26462;47.384;19.218;2023-09-07T07:59:19;22.60;84.40
40758;DHT22;26462;47.384;19.218;2023-09-07T08:01:47;22.80;85.30
40758;DHT22;26462;47.384;19.218;2023-09-07T08:04:14;22.80;82.90
40758;DHT22;26462;47.384;19.218;2023-09-07T08:06:41;22.80;82.90
40758;DHT22;26462;47.384;19.218;2023-09-07T08:09:08;23.00;82.80
40758;DHT22;26462;47.384;19.218;2023-09-07T08:11:37;23.00;82.00
40758;DHT22;26462;47.384;19.218;2023-09-07T08:14:07;23.10;83.20
40758;DHT22;26462;47.384;19.218;2023-09-07T08:16:34;23.30;81.50
40758;DHT22;26462;47.384;19.218;2023-09-07T08:19:02;23.30;81.30
40758;DHT22;26462;47.384;19.218;2023-09-07T08:21:31;23.40;80.60
40758;DHT22;26462;47.384;19.218;2023-09-07T08:23:58;23.50;80.80
40758;DHT22;26462;47.384;19.218;2023-09-07T08:26:26;23.60;81.30
40758;DHT22;26462;47.384;19.218;2023-09-07T08:28:53;23.60;79.90
40758;DHT22;26462;47.384;19.218;2023-09-07T08:31:20;23.70;80.10
40758;DHT22;26462;47.384;19.218;2023-09-07T08:33:49;23.70;79.00
40758;DHT22;26462;47.384;19.218;2023-09-07T08:36:22;23.80;79.50
40758;DHT22;26462;47.384;19.218;2023-09-07T08:38:51;23.90;79.80
40758;DHT22;26462;47.384;19.218;2023-09-07T08:41:21;23.80;78.10
40758;DHT22;26462;47.384;19.218;2023-09-07T08:43:50;23.80;78.00
40758;DHT22;26462;47.384;19.218;2023-09-07T08:46:19;23.90;77.90
40758;DHT22;26462;47.384;19.218;2023-09-07T08:48:51;23.90;76.50
40758;DHT22;26462;47.384;19.218;2023-09-07T08:51:20;23.90;76.80
40758;DHT22;26462;47.384;19.218;2023-09-07T08:53:47;24.10;77.50
40758;DHT22;26462;47.384;19.218;2023-09-07T08:56:16;24.00;76.50
40758;DHT22;26462;47.384;19.218;2023-09-07T08:58:44;24.00;76.80
40758;DHT22;26462;47.384;19.218;2023-09-07T09:01:12;24.10;75.90
40758;DHT22;26462;47.384;19.218;2023-09-07T09:03:42;24.00;74.80
40758;DHT22;26462;47.384;19.218;2023-09-07T09:06:11;24.00;75.70
40758;DHT22;26462;47.384;19.218;2023-09-07T09:08:52;24.10;75.70
40758;DHT22;26462;47.384;19.218;2023-09-07T09:11:23;24.00;74.80
40758;DHT22;26462;47.384;19.218;2023-09-07T09:13:52;24.00;74.10
40758;DHT22;26462;47.384;19.218;2023-09-07T09:16:20;24.00;75.20
40758;DHT22;26462;47.384;19.218;2023-09-07T09:18:49;24.20;72.80
40758;DHT22;26462;47.384;19.218;2023-09-07T09:21:20;24.20;73.50
40758;DHT22;26462;47.384;19.218;2023-09-07T09:23:50;24.30;74.50
40758;DHT22;26462;47.384;19.218;2023-09-07T09:26:17;24.30;75.20
40758;DHT22;26462;47.384;19.218;2023-09-07T09:28:45;24.30;75.00
40758;DHT22;26462;47.384;19.218;2023-09-07T09:31:13;24.40;75.20
40758;DHT22;26462;47.384;19.218;2023-09-07T09:33:42;24.30;75.20
40758;DHT22;26462;47.384;19.218;2023-09-07T09:36:09;24.40;74.70
40758;DHT22;26462;47.384;19.218;2023-09-07T09:38:37;24.50;73.80
40758;DHT22;26462;47.384;19.218;2023-09-07T09:41:05;24.50;74.60
40758;DHT22;26462;47.384;19.218;2023-09-07T09:43:32;24.50;73.40
40758;DHT22;26462;47.384;19.218;2023-09-07T09:46:00;24.50;73.00
40758;DHT22;26462;47.384;19.218;2023-09-07T09:48:28;24.40;73.80
40758;DHT22;26462;47.384;19.218;2023-09-07T09:50:55;24.50;73.80
40758;DHT22;26462;47.384;19.218;2023-09-07T09:53:24;24.40;73.30
40758;DHT22;26462;47.384;19.218;2023-09-07T09:55:54;24.40;72.80
40758;DHT22;26462;47.384;19.218;2023-09-07T09:58:21;24.50;73.40
40758;DHT22;26462;47.384;19.218;2023-09-07T10:00:53;24.60;73.40
40758;DHT22;26462;47.384;19.218;2023-09-07T10:05:50;24.70;71.70
40758;DHT22;26462;47.384;19.218;2023-09-07T10:08:19;24.80;72.90
40758;DHT22;26462;47.384;19.218;2023-09-07T10:10:48;25.00;72.60
40758;DHT22;26462;47.384;19.218;2023-09-07T10:13:17;25.00;72.40
40758;DHT22;26462;47.384;19.218;2023-09-07T10:16:08;24.90;70.90
40758;DHT22;26462;47.384;19.218;2023-09-07T10:18:39;25.10;72.10
40758;DHT22;26462;47.384;19.218;2023-09-07T10:21:06;25.30;71.30
40758;DHT22;26462;47.384;19.218;2023-09-07T10:23:39;25.20;68.60
40758;DHT22;26462;47.384;19.218;2023-09-07T10:26:14;25.10;68.70
40758;DHT22;26462;47.384;19.218;2023-09-07T10:28:45;25.10;69.10
40758;DHT22;26462;47.384;19.218;2023-09-07T10:31:17;25.10;67.70
40758;DHT22;26462;47.384;19.218;2023-09-07T10:33:46;25.10;67.10
40758;DHT22;26462;47.384;19.218;2023-09-07T10:36:27;25.10;67.80
40758;DHT22;26462;47.384;19.218;2023-09-07T10:38:56;25.20;68.40
40758;DHT22;26462;47.384;19.218;2023-09-07T10:41:23;25.20;69.40
40758;DHT22;26462;47.384;19.218;2023-09-07T10:43:52;25.20;68.20
40758;DHT22;26462;47.384;19.218;2023-09-07T10:46:21;25.20;67.00
40758;DHT22;26462;47.384;19.218;2023-09-07T10:48:50;25.20;67.20
40758;DHT22;26462;47.384;19.218;2023-09-07T10:51:21;25.30;68.90
40758;DHT22;26462;47.384;19.218;2023-09-07T10:53:48;25.50;69.50
40758;DHT22;26462;47.384;19.218;2023-09-07T10:56:16;25.60;69.40
40758;DHT22;26462;47.384;19.218;2023-09-07T10:58:44;25.60;67.70
40758;DHT22;26462;47.384;19.218;2023-09-07T11:01:12;25.50;66.90
40758;DHT22;26462;47.384;19.218;2023-09-07T11:03:43;25.40;66.60
40758;DHT22;26462;47.384;19.218;2023-09-07T11:06:17;25.40;66.20
40758;DHT22;26462;47.384;19.218;2023-09-07T11:08:46;25.50;66.30
40758;DHT22;26462;47.384;19.218;2023-09-07T11:11:13;25.50;67.20
40758;DHT22;26462;47.384;19.218;2023-09-07T11:13:41;25.50;67.30
40758;DHT22;26462;47.384;19.218;2023-09-07T11:16:09;25.40;65.40
40758;DHT22;26462;47.384;19.218;2023-09-07T11:18:36;25.40;67.00
40758;DHT22;26462;47.384;19.218;2023-09-07T11:21:04;25.40;65.70
40758;DHT22;26462;47.384;19.218;2023-09-07T11:23:31;25.40;65.30
40758;DHT22;26462;47.384;19.218;2023-09-07T11:26:07;25.50;65.50
40758;DHT22;26462;47.384;19.218;2023-09-07T11:28:35;25.40;64.90
40758;DHT22;26462;47.384;19.218;2023-09-07T11:31:02;25.40;65.80
40758;DHT22;26462;47.384;19.218;2023-09-07T11:33:32;25.50;66.10
40758;DHT22;26462;47.384;19.218;2023-09-07T11:36:00;25.50;65.10
40758;DHT22;26462;47.384;19.218;2023-09-07T11:38:30;25.60;65.40
40758;DHT22;26462;47.384;19.218;2023-09-07T11:41:01;25.70;66.30
40758;DHT22;26462;47.384;19.218;2023-09-07T11:43:29;25.80;66.40
40758;DHT22;26462;47.384;19.218;2023-09-07T11:45:56;25.70;65.90
40758;DHT22;26462;47.384;19.218;2023-09-07T11:48:24;25.80;67.00
40758;DHT22;26462;47.384;19.218;2023-09-07T11:50:51;25.80;65.80
40758;DHT22;26462;47.384;19.218;2023-09-07T11:53:18;25.90;65.40
40758;DHT22;26462;47.384;19.218;2023-09-07T11:55:45;25.80;63.80
40758;DHT22;26462;47.384;19.218;2023-09-07T11:58:12;25.70;63.50
40758;DHT22;26462;47.384;19.218;2023-09-07T12:00:39;25.70;63.70
40758;DHT22;26462;47.384;19.218;2023-09-07T12:03:08;25.80;64.10
40758;DHT22;26462;47.384;19.218;2023-09-07T12:05:35;25.80;63.20
40758;DHT22;26462;47.384;19.218;2023-09-07T12:08:05;25.90;64.10
40758;DHT22;26462;47.384;19.218;2023-09-07T12:10:32;25.90;63.50
40758;DHT22;26462;47.384;19.218;2023-09-07T12:13:00;26.00;64.60
40758;DHT22;26462;47.384;19.218;2023-09-07T12:15:27;25.90;63.10
40758;DHT22;26462;47.384;19.218;2023-09-07T12:17:54;25.90;63.90
40758;DHT22;26462;47.384;19.218;2023-09-07T12:20:23;26.00;64.40
40758;DHT22;26462;47.384;19.218;2023-09-07T12:22:50;26.10;64.20
40758;DHT22;26462;47.384;19.218;2023-09-07T12:25:17;26.10;64.90
40758;DHT22;26462;47.384;19.218;2023-09-07T12:27:45;26.10;64.90
40758;DHT22;26462;47.384;19.218;2023-09-07T12:30:18;26.00;62.50
40758;DHT22;26462;47.384;19.218;2023-09-07T12:32:48;26.00;62.50
40758;DHT22;26462;47.384;19.218;2023-09-07T12:35:15;26.00;63.50
40758;DHT22;26462;47.384;19.218;2023-09-07T12:37:43;26.10;61.50
40758;DHT22;26462;47.384;19.218;2023-09-07T12:40:11;26.10;62.20
40758;DHT22;26462;47.384;19.218;2023-09-07T12:42:40;26.20;60.90
40758;DHT22;26462;47.384;19.218;2023-09-07T12:45:12;26.10;61.50
40758;DHT22;26462;47.384;19.218;2023-09-07T12:47:39;26.10;61.70
40758;DHT22;26462;47.384;19.218;2023-09-07T12:50:07;26.10;62.60
40758;DHT22;26462;47.384;19.218;2023-09-07T12:52:34;26.10;61.20
40758;DHT22;26462;47.384;19.218;2023-09-07T12:55:06;26.10;61.50
40758;DHT22;26462;47.384;19.218;2023-09-07T12:57:34;26.20;62.00
40758;DHT22;26462;47.384;19.218;2023-09-07T13:00:04;26.20;61.90
40758;DHT22;26462;47.384;19.218;2023-09-07T13:02:32;26.10;61.10
40758;DHT22;26462;47.384;19.218;2023-09-07T13:05:00;26.10;61.40
40758;DHT22;26462;47.384;19.218;2023-09-07T13:07:27;26.10;62.40
40758;DHT22;26462;47.384;19.218;2023-09-07T13:09:54;26.20;62.30
40758;DHT22;26462;47.384;19.218;2023-09-07T13:12:22;26.20;63.20
40758;DHT22;26462;47.384;19.218;2023-09-07T13:14:49;26.30;62.20
40758;DHT22;26462;47.384;19.218;2023-09-07T13:17:16;26.30;61.70
40758;DHT22;26462;47.384;19.218;2023-09-07T13:19:43;26.30;61.70
40758;DHT22;26462;47.384;19.218;2023-09-07T13:22:11;26.30;60.40
40758;DHT22;26462;47.384;19.218;2023-09-07T13:24:38;26.30;60.30
40758;DHT22;26462;47.384;19.218;2023-09-07T13:27:05;26.40;60.40
40758;DHT22;26462;47.384;19.218;2023-09-07T13:29:33;26.40;61.10
40758;DHT22;26462;47.384;19.218;2023-09-07T13:32:00;26.40;59.80
40758;DHT22;26462;47.384;19.218;2023-09-07T13:34:27;26.40;60.70
40758;DHT22;26462;47.384;19.218;2023-09-07T13:36:55;26.30;59.30
40758;DHT22;26462;47.384;19.218;2023-09-07T13:39:23;26.30;58.20
40758;DHT22;26462;47.384;19.218;2023-09-07T13:41:50;26.20;58.70
40758;DHT22;26462;47.384;19.218;2023-09-07T13:44:17;26.20;59.20
40758;DHT22;26462;47.384;19.218;2023-09-07T13:46:45;26.20;59.50
40758;DHT22;26462;47.384;19.218;2023-09-07T13:49:12;26.30;60.20
40758;DHT22;26462;47.384;19.218;2023-09-07T13:51:43;26.30;61.10
40758;DHT22;26462;47.384;19.218;2023-09-07T13:54:12;26.30;60.60
40758;DHT22;26462;47.384;19.218;2023-09-07T13:56:39;26.30;59.90
40758;DHT22;26462;47.384;19.218;2023-09-07T13:59:08;26.30;59.50
40758;DHT22;26462;47.384;19.218;2023-09-07T14:01:35;26.30;59.30
40758;DHT22;26462;47.384;19.218;2023-09-07T14:04:02;26.20;58.50
40758;DHT22;26462;47.384;19.218;2023-09-07T14:06:29;26.20;59.30
40758;DHT22;26462;47.384;19.218;2023-09-07T14:09:00;26.10;58.90
40758;DHT22;26462;47.384;19.218;2023-09-07T14:11:32;26.20;59.20
40758;DHT22;26462;47.384;19.218;2023-09-07T14:14:00;26.20;57.70
40758;DHT22;26462;47.384;19.218;2023-09-07T14:16:27;26.20;58.10
40758;DHT22;26462;47.384;19.218;2023-09-07T14:18:55;26.20;58.00
40758;DHT22;26462;47.384;19.218;2023-09-07T14:21:23;26.10;57.50
40758;DHT22;26462;47.384;19.218;2023-09-07T14:23:51;26.10;58.20
40758;DHT22;26462;47.384;19.218;2023-09-07T14:26:18;26.00;58.00
40758;DHT22;26462;47.384;19.218;2023-09-07T14:28:45;26.00;57.20
40758;DHT22;26462;47.384;19.218;2023-09-07T14:31:12;26.10;55.90
40758;DHT22;26462;47.384;19.218;2023-09-07T14:33:42;26.00;56.40
40758;DHT22;26462;47.384;19.218;2023-09-07T14:36:09;26.00;56.20
40758;DHT22;26462;47.384;19.218;2023-09-07T14:38:36;25.90;58.40
40758;DHT22;26462;47.384;19.218;2023-09-07T14:41:12;26.00;57.60
40758;DHT22;26462;47.384;19.218;2023-09-07T14:43:48;25.90;57.50
40758;DHT22;26462;47.384;19.218;2023-09-07T14:46:15;26.00;57.90
40758;DHT22;26462;47.384;19.218;2023-09-07T14:48:44;25.90;58.00
40758;DHT22;26462;47.384;19.218;2023-09-07T14:51:12;25.80;58.20
40758;DHT22;26462;47.384;19.218;2023-09-07T14:53:40;25.80;58.30
40758;DHT22;26462;47.384;19.218;2023-09-07T14:56:07;25.80;58.00
40758;DHT22;26462;47.384;19.218;2023-09-07T14:58:34;25.80;57.80
40758;DHT22;26462;47.384;19.218;2023-09-07T15:01:05;25.80;56.00
40758;DHT22;26462;47.384;19.218;2023-09-07T15:03:33;25.80;57.40
40758;DHT22;26462;47.384;19.218;2023-09-07T15:06:01;25.70;57.00
40758;DHT22;26462;47.384;19.218;2023-09-07T15:08:28;25.70;56.80
40758;DHT22;26462;47.384;19.218;2023-09-07T15:10:55;25.70;57.50
40758;DHT22;26462;47.384;19.218;2023-09-07T15:13:22;25.70;57.10
40758;DHT22;26462;47.384;19.218;2023-09-07T15:15:50;25.70;57.70
40758;DHT22;26462;47.384;19.218;2023-09-07T15:18:17;25.70;56.50
40758;DHT22;26462;47.384;19.218;2023-09-07T15:20:44;25.70;56.20
40758;DHT22;26462;47.384;19.218;2023-09-07T15:23:14;25.70;56.40